Time;durP1;ratioP1;P1;durP2;ratioP2;P2;SDS_P1;SDS_P2;PMS_P1;PMS_P2;Temp;Humidity;BMP_temperature;BMP_pressure;BME280_temperature;BME280_humidity;BME280_pressure;Samples;Min_cycle;Max_cycle;Signal;HPM_P1;HPM_P2
2022/04/08 00:02:08;;;;;;;6.90;0.93;;;;;;;8.32;59.84;98017.28;4935720;29;20036;-74
2022/04/08 00:04:33;;;;;;;3.90;0.68;;;;;;;8.37;60.19;98003.13;4936064;29;20036;-75
2022/04/08 00:06:59;;;;;;;3.05;0.68;;;;;;;8.37;60.03;98017.09;4935304;29;20039;-74
2022/04/08 00:09:25;;;;;;;7.00;1.02;;;;;;;8.48;57.95;98016.72;4935803;29;20044;-75
2022/04/08 00:11:51;;;;;;;2.67;0.98;;;;;;;8.53;57.62;98007.75;4935175;29;20039;-74
2022/04/08 00:14:18;;;;;;;4.65;1.25;;;;;;;8.62;57.42;97987.28;4932171;29;20067;-75
2022/04/08 00:16:44;;;;;;;5.47;1.00;;;;;;;8.60;57.26;98012.81;4933183;29;20095;-74
2022/04/08 00:19:09;;;;;;;5.03;0.90;;;;;;;8.61;57.16;97980.31;4935817;29;20039;-74
2022/04/08 00:21:35;;;;;;;12.07;1.42;;;;;;;8.58;56.55;98007.59;4929647;29;20043;-74
2022/04/08 00:24:00;;;;;;;5.68;1.00;;;;;;;8.59;55.92;97977.72;4935300;29;20772;-74
2022/04/08 00:26:26;;;;;;;5.25;0.82;;;;;;;8.62;56.06;98026.72;4935278;29;20450;-74
2022/04/08 00:28:51;;;;;;;4.53;1.17;;;;;;;8.77;56.52;97998.06;4934829;29;20043;-74
2022/04/08 00:31:16;;;;;;;5.20;0.93;;;;;;;8.80;56.14;98002.34;4934643;29;20043;-74
2022/04/08 00:33:41;;;;;;;6.30;1.02;;;;;;;8.79;56.97;98016.41;4933529;29;20036;-74
2022/04/08 00:36:07;;;;;;;6.30;1.30;;;;;;;8.84;55.50;98082.00;4934210;29;20047;-74
2022/04/08 00:38:32;;;;;;;4.63;1.00;;;;;;;8.88;56.07;98004.66;4935060;29;20066;-74
2022/04/08 00:40:58;;;;;;;10.95;2.05;;;;;;;8.93;56.11;97995.69;4935495;29;20035;-74
2022/04/08 00:43:35;;;;;;;5.95;1.30;;;;;;;8.93;56.07;97997.44;4932970;29;20043;-74
2022/04/08 00:46:09;;;;;;;8.30;1.50;;;;;;;8.82;55.57;98016.28;4934370;29;20035;-74
2022/04/08 00:48:36;;;;;;;5.70;1.27;;;;;;;8.90;55.70;98029.13;4931101;29;20507;-74
2022/04/08 00:51:04;;;;;;;6.00;1.10;;;;;;;8.94;55.10;98004.44;4933596;29;20043;-74
2022/04/08 00:53:30;;;;;;;9.05;1.70;;;;;;;8.94;55.40;98051.78;4932664;29;20510;-74
2022/04/08 00:55:55;;;;;;;8.85;1.42;;;;;;;8.99;55.13;98047.22;4935226;29;20027;-74
2022/04/08 00:58:21;;;;;;;5.60;1.40;;;;;;;9.04;54.17;98042.63;4934991;29;20039;-74
2022/04/08 01:00:46;;;;;;;5.50;0.77;;;;;;;8.99;54.71;98027.00;4933396;29;20434;-74
2022/04/08 01:03:12;;;;;;;6.63;1.38;;;;;;;8.93;54.71;98027.28;4934809;29;20043;-74
2022/04/08 01:05:37;;;;;;;5.15;1.02;;;;;;;8.94;54.99;98036.84;4933669;29;20384;-74
2022/04/08 01:08:04;;;;;;;7.38;1.20;;;;;;;8.96;54.55;98056.06;4934819;29;20509;-74
2022/04/08 01:10:29;;;;;;;5.70;0.98;;;;;;;8.96;54.41;98066.59;4931978;29;20070;-74
2022/04/08 01:12:55;;;;;;;5.07;1.02;;;;;;;8.95;54.74;98087.69;4933555;29;20075;-75
2022/04/08 01:15:22;;;;;;;6.78;1.10;;;;;;;9.09;54.33;98061.72;4932066;29;20036;-75
2022/04/08 01:17:49;;;;;;;6.22;1.33;;;;;;;8.98;54.82;98080.53;4934770;29;20197;-74
2022/04/08 01:20:15;;;;;;;6.32;1.27;;;;;;;8.93;55.40;98108.81;4934703;29;20581;-74
2022/04/08 01:22:41;;;;;;;4.00;0.90;;;;;;;8.88;55.64;98073.06;4934221;29;20034;-74
2022/04/08 01:25:08;;;;;;;4.75;0.93;;;;;;;8.91;55.58;98072.97;4934594;29;20028;-74
2022/04/08 01:27:35;;;;;;;5.70;0.98;;;;;;;8.97;55.31;98094.59;4931881;29;20491;-74
2022/04/08 01:30:01;;;;;;;5.40;1.13;;;;;;;8.87;55.16;98082.72;4934478;29;20063;-74
2022/04/08 01:32:26;;;;;;;6.32;1.33;;;;;;;8.86;55.75;98103.84;4933678;29;20055;-74
2022/04/08 01:34:53;;;;;;;7.32;1.35;;;;;;;8.85;56.00;98105.59;4933722;29;20035;-74
2022/04/08 01:37:19;;;;;;;4.72;0.95;;;;;;;8.86;55.84;98145.94;4930528;29;20044;-74
2022/04/08 01:39:44;;;;;;;3.95;0.90;;;;;;;8.74;56.98;98097.25;4932930;29;20055;-74
2022/04/08 01:42:10;;;;;;;5.13;1.10;;;;;;;8.77;56.89;98142.69;4933243;29;20514;-75
2022/04/08 01:44:36;;;;;;;3.33;1.00;;;;;;;8.72;57.61;98194.63;4929746;29;20447;-74
2022/04/08 01:47:01;;;;;;;4.00;0.90;;;;;;;8.66;57.15;98130.88;4934394;29;20046;-74
2022/04/08 01:49:27;;;;;;;5.63;1.25;;;;;;;8.66;57.03;98136.13;4930927;29;20103;-74
2022/04/08 01:51:52;;;;;;;4.32;1.02;;;;;;;8.68;57.22;98150.94;4931773;29;20530;-74
2022/04/08 01:54:18;;;;;;;4.82;0.80;;;;;;;8.67;57.67;98186.06;4931259;29;20048;-74
2022/04/08 01:56:43;;;;;;;4.43;0.93;;;;;;;8.56;58.25;98183.78;4934143;29;20090;-74
2022/04/08 01:59:08;;;;;;;5.20;0.77;;;;;;;8.61;58.23;98190.66;4932583;29;20044;-75
2022/04/08 02:01:33;;;;;;;6.10;1.20;;;;;;;8.49;58.29;98182.31;4933709;29;20040;-74
2022/04/08 02:03:59;;;;;;;2.35;0.60;;;;;;;8.41;59.23;98179.09;4933960;29;20040;-74
2022/04/08 02:06:25;;;;;;;5.00;0.95;;;;;;;8.43;59.01;98186.91;4932296;29;20058;-74
2022/04/08 02:08:50;;;;;;;5.70;1.35;;;;;;;8.32;59.09;98190.72;4933718;29;20034;-74
2022/04/08 02:11:16;;;;;;;4.72;0.70;;;;;;;8.39;59.80;98211.56;4933940;29;20046;-74
2022/04/08 02:13:41;;;;;;;5.00;0.98;;;;;;;8.32;59.74;98190.72;4933560;29;20039;-74
2022/04/08 02:16:06;;;;;;;5.97;0.93;;;;;;;8.33;60.14;98199.47;4930284;29;20066;-74
2022/04/08 02:18:32;;;;;;;2.83;0.75;;;;;;;8.23;60.88;98196.31;4933695;29;20050;-74
2022/04/08 02:20:57;;;;;;;2.25;0.80;;;;;;;8.25;60.96;98201.50;4933374;29;20130;-74
2022/04/08 02:23:23;;;;;;;2.63;0.70;;;;;;;8.23;60.80;98211.22;4932520;29;20039;-74
2022/04/08 02:25:48;;;;;;;3.63;1.00;;;;;;;8.19;60.76;98209.59;4933733;29;20043;-74
2022/04/08 02:28:13;;;;;;;4.90;1.27;;;;;;;8.11;61.58;98207.22;4931151;29;20040;-74
2022/04/08 02:30:39;;;;;;;5.20;0.90;;;;;;;8.15;61.55;98226.34;4933231;29;20490;-74
2022/04/08 02:33:04;;;;;;;3.33;1.17;;;;;;;8.04;61.57;98216.22;4933401;29;20119;-74
2022/04/08 02:35:31;;;;;;;5.25;1.05;;;;;;;8.08;61.48;98238.84;4929551;29;20132;-74
2022/04/08 02:37:56;;;;;;;4.13;0.90;;;;;;;8.12;61.57;98227.31;4933334;29;20115;-74
2022/04/08 02:40:21;;;;;;;3.88;1.10;;;;;;;8.10;61.72;98221.28;4933877;29;20758;-74
2022/04/08 02:42:47;;;;;;;4.53;1.10;;;;;;;8.01;62.05;98242.56;4929239;29;20566;-74
2022/04/08 02:45:12;;;;;;;5.18;1.20;;;;;;;8.09;61.66;98235.31;4933492;29;20036;-74
2022/04/08 02:47:44;;;;;;;5.60;1.40;;;;;;;8.06;61.85;98259.06;4932846;29;20043;-75
2022/04/08 02:50:10;;;;;;;3.22;0.80;;;;;;;8.08;62.05;98260.72;4933768;29;20558;-74
2022/04/08 02:52:36;;;;;;;4.80;0.93;;;;;;;8.03;61.76;98249.50;4927606;29;20040;-74
2022/04/08 02:55:01;;;;;;;3.55;1.00;;;;;;;8.11;61.37;98244.84;4931831;29;20402;-74
2022/04/08 02:57:27;;;;;;;4.13;1.00;;;;;;;8.16;61.96;98257.84;4936324;29;20032;-74
2022/04/08 02:59:53;;;;;;;3.45;0.80;;;;;;;8.10;61.76;98247.56;4936742;29;20035;-74
2022/04/08 03:02:19;;;;;;;5.25;1.35;;;;;;;8.12;62.08;98269.34;4936792;29;20074;-74
2022/04/08 03:04:44;;;;;;;4.15;0.90;;;;;;;8.11;61.72;98281.63;4936625;29;20070;-74
2022/04/08 03:07:10;;;;;;;3.60;0.95;;;;;;;8.17;61.86;98270.06;4937092;29;20050;-74
2022/04/08 03:09:36;;;;;;;4.40;1.13;;;;;;;8.20;61.97;98283.13;4937092;29;20086;-73
2022/04/08 03:12:02;;;;;;;4.85;1.35;;;;;;;8.11;62.52;98286.03;4932319;29;20036;-74
2022/04/08 03:14:28;;;;;;;5.15;0.95;;;;;;;8.11;62.43;98281.63;4936826;29;20035;-74
2022/04/08 03:16:53;;;;;;;2.45;0.90;;;;;;;8.11;62.50;98302.66;4936782;29;20222;-74
2022/04/08 03:19:18;;;;;;;3.78;0.90;;;;;;;8.06;61.89;98273.03;4936759;29;20123;-74
2022/04/08 03:21:44;;;;;;;5.22;0.80;;;;;;;8.12;62.17;98298.25;4934468;29;20067;-74
2022/04/08 03:24:10;;;;;;;4.50;1.05;;;;;;;8.09;62.00;98303.59;4936846;29;20038;-74
2022/04/08 03:26:36;;;;;;;4.43;1.15;;;;;;;8.08;62.36;98301.91;4932150;29;20054;-74
2022/04/08 03:29:01;;;;;;;4.90;0.90;;;;;;;8.00;62.19;98310.03;4934260;29;20118;-73
2022/04/08 03:31:28;;;;;;;5.47;1.30;;;;;;;7.96;62.27;98302.28;4936349;29;20079;-74
2022/04/08 03:33:53;;;;;;;5.28;1.67;;;;;;;8.01;62.82;98316.13;4936607;29;20035;-73
2022/04/08 03:36:19;;;;;;;4.32;1.10;;;;;;;8.04;62.08;98308.16;4936492;29;20411;-74
2022/04/08 03:38:44;;;;;;;3.47;1.10;;;;;;;7.98;62.46;98321.47;4935006;29;21645;-73
2022/04/08 03:41:10;;;;;;;3.38;1.30;;;;;;;8.02;62.52;98329.22;4936279;29;20031;-73
2022/04/08 03:43:35;;;;;;;6.28;1.10;;;;;;;7.98;62.55;98322.34;4931860;29;20032;-74
2022/04/08 03:46:01;;;;;;;4.18;1.17;;;;;;;8.03;62.17;98340.59;4936626;29;20042;-74
2022/04/08 03:48:26;;;;;;;2.88;1.10;;;;;;;7.99;62.51;98341.56;4936319;29;20043;-74
2022/04/08 03:50:52;;;;;;;5.18;1.20;;;;;;;7.94;62.78;98348.75;4936125;29;20035;-74
2022/04/08 03:53:18;;;;;;;4.05;0.98;;;;;;;7.94;62.24;98354.00;4936231;29;20039;-74
2022/04/08 03:55:43;;;;;;;2.67;0.90;;;;;;;7.95;62.10;98369.72;4935121;29;20411;-74
2022/04/08 03:58:09;;;;;;;5.03;1.48;;;;;;;8.00;62.33;98369.59;4932407;29;20506;-73
2022/04/08 04:00:35;;;;;;;5.13;1.20;;;;;;;7.94;62.85;98372.38;4936064;29;20043;-74
2022/04/08 04:03:00;;;;;;;4.78;1.10;;;;;;;7.88;62.60;98369.03;4935918;29;20040;-74
2022/04/08 04:05:25;;;;;;;4.68;1.65;;;;;;;7.96;62.61;98362.69;4935840;29;20036;-74
2022/04/08 04:07:51;;;;;;;3.97;1.10;;;;;;;7.92;62.01;98382.09;4933609;29;20043;-74
2022/04/08 04:10:16;;;;;;;5.18;1.10;;;;;;;7.92;62.61;98361.94;4935768;29;20245;-74
2022/04/08 04:12:42;;;;;;;9.95;1.25;;;;;;;7.99;61.89;98368.72;4935819;29;20036;-74
2022/04/08 04:15:09;;;;;;;4.10;1.20;;;;;;;7.87;62.05;98361.22;4935617;29;20080;-74
2022/04/08 04:17:35;;;;;;;4.57;1.40;;;;;;;8.00;62.04;98388.81;4932308;29;20036;-74
2022/04/08 04:20:00;;;;;;;5.05;0.88;;;;;;;8.03;61.78;98396.59;4934824;29;20094;-74
2022/04/08 04:22:26;;;;;;;1.67;0.75;;;;;;;8.00;61.14;98395.84;4935185;29;20031;-76
2022/04/08 04:24:51;;;;;;;3.33;1.35;;;;;;;7.95;61.38;98387.25;4934153;29;20499;-74
2022/04/08 04:27:16;;;;;;;5.88;1.42;;;;;;;7.95;61.85;98417.00;4935934;29;20135;-75
2022/04/08 04:29:42;;;;;;;3.85;1.17;;;;;;;7.93;62.39;98389.06;4934234;29;20046;-75
2022/04/08 04:32:08;;;;;;;5.03;1.42;;;;;;;7.87;62.32;98411.97;4933371;29;20042;-74
2022/04/08 04:34:36;;;;;;;3.65;0.93;;;;;;;7.93;62.41;98399.56;4932689;29;20035;-74
2022/04/08 04:37:01;;;;;;;2.20;0.90;;;;;;;7.89;62.51;98419.81;4932857;29;20059;-75
2022/04/08 04:39:26;;;;;;;4.38;1.27;;;;;;;7.94;62.08;98417.91;4933350;29;20062;-75
2022/04/08 04:41:52;;;;;;;2.78;1.17;;;;;;;7.92;62.07;98424.13;4931953;29;20036;-74
2022/04/08 04:44:17;;;;;;;3.28;1.23;;;;;;;7.89;62.21;98422.44;4933465;29;20024;-74
2022/04/08 04:46:45;;;;;;;5.25;1.00;;;;;;;7.97;61.81;98425.69;4932696;29;20128;-74
2022/04/08 04:49:10;;;;;;;4.00;0.95;;;;;;;7.90;61.90;98463.53;4932704;29;20035;-74
2022/04/08 04:51:36;;;;;;;3.33;1.30;;;;;;;7.99;62.58;98436.13;4932791;29;20122;-74
2022/04/08 04:54:01;;;;;;;4.13;1.02;;;;;;;7.97;62.58;98440.59;4933231;29;20501;-74
2022/04/08 04:56:26;;;;;;;4.35;1.20;;;;;;;7.96;62.24;98460.72;4932028;29;20043;-75
2022/04/08 04:58:52;;;;;;;2.67;1.15;;;;;;;7.97;62.51;98448.50;4930873;29;20087;-74
2022/04/08 05:01:17;;;;;;;5.53;1.50;;;;;;;7.97;62.64;98461.63;4929599;29;20046;-74
2022/04/08 05:03:42;;;;;;;6.03;2.00;;;;;;;7.93;63.25;98459.97;4926401;29;20028;-74
2022/04/08 05:06:08;;;;;;;4.28;1.15;;;;;;;7.88;63.27;98468.81;4928852;29;20032;-74
2022/04/08 05:08:33;;;;;;;4.47;1.33;;;;;;;7.87;63.50;98467.13;4934329;29;20241;-74
2022/04/08 05:10:59;;;;;;;2.70;1.10;;;;;;;7.99;63.32;98473.81;4934954;29;20418;-74
2022/04/08 05:13:25;;;;;;;4.28;1.30;;;;;;;7.87;64.04;98461.88;4934969;29;20051;-74
2022/04/08 05:15:50;;;;;;;3.72;1.17;;;;;;;7.92;64.07;98488.00;4930155;29;20050;-74
2022/04/08 05:18:15;;;;;;;2.78;1.10;;;;;;;7.86;63.81;98475.91;4934589;29;20035;-74
2022/04/08 05:20:41;;;;;;;22.98;2.00;;;;;;;7.82;63.75;98511.03;4933881;29;20643;-74
2022/04/08 05:23:06;;;;;;;2.45;1.00;;;;;;;7.92;63.29;98501.13;4938528;29;20176;-74
2022/04/08 05:25:31;;;;;;;3.80;1.35;;;;;;;7.99;62.91;98486.06;4934797;29;20035;-74
2022/04/08 05:27:57;;;;;;;3.97;1.20;;;;;;;8.02;62.65;98497.34;4934676;29;20044;-74
2022/04/08 05:30:22;;;;;;;2.72;1.00;;;;;;;8.09;62.57;98498.03;4934725;29;20075;-74
2022/04/08 05:32:48;;;;;;;3.53;1.23;;;;;;;8.08;62.53;98506.81;4934409;29;20110;-74
2022/04/08 05:35:17;;;;;;;4.55;1.30;;;;;;;8.23;62.31;98501.13;4934379;29;20036;-74
2022/04/08 05:37:47;;;;;;;5.45;1.45;;;;;;;8.23;61.82;98505.53;4933757;29;21697;-74
2022/04/08 05:40:15;;;;;;;3.20;0.90;;;;;;;8.26;61.05;98514.19;4934512;29;20035;-74
2022/04/08 05:42:49;;;;;;;3.45;1.50;;;;;;;8.32;61.43;98519.25;4932662;29;20036;-74
2022/04/08 05:45:21;;;;;;;3.65;0.90;;;;;;;8.30;61.20;98536.81;4932333;29;20031;-74
2022/04/08 05:47:50;;;;;;;5.78;1.50;;;;;;;8.31;60.78;98516.69;4933147;29;20058;-73
2022/04/08 05:50:16;;;;;;;7.32;2.38;;;;;;;8.24;63.08;98550.16;4933810;29;20039;-74
2022/04/08 05:52:43;;;;;;;3.78;1.42;;;;;;;8.00;66.35;98571.84;4933419;29;20403;-74
2022/04/08 05:55:09;;;;;;;4.38;1.42;;;;;;;7.51;68.84;98584.47;4933243;29;20418;-75
2022/04/08 05:57:35;;;;;;;3.28;1.05;;;;;;;7.07;71.91;98604.75;4934004;29;20139;-75
2022/04/08 06:00:02;;;;;;;4.10;1.35;;;;;;;6.85;73.69;98611.41;4934115;29;20105;-75
2022/04/08 06:02:29;;;;;;;4.75;1.42;;;;;;;6.70;75.47;98604.72;4933710;29;20046;-75
2022/04/08 06:04:54;;;;;;;5.15;1.17;;;;;;;6.61;75.78;98607.56;4933768;29;20027;-75
2022/04/08 06:07:23;;;;;;;5.65;1.80;;;;;;;6.50;77.94;98597.28;4933655;29;20032;-76
2022/04/08 06:09:48;;;;;;;5.40;1.98;;;;;;;6.35;79.24;98614.16;4933061;29;20062;-76
2022/04/08 06:12:13;;;;;;;6.63;2.53;;;;;;;6.32;80.69;98615.09;4933746;29;20411;-75
2022/04/08 06:14:39;;;;;;;6.10;2.70;;;;;;;6.30;81.26;98623.88;4933685;29;20511;-75
2022/04/08 06:17:04;;;;;;;5.32;2.72;;;;;;;6.20;83.07;98636.28;4933882;29;20052;-76
2022/04/08 06:19:30;;;;;;;6.85;2.53;;;;;;;6.11;84.45;98632.09;4933801;29;20036;-76
2022/04/08 06:21:55;;;;;;;6.40;2.55;;;;;;;6.03;85.32;98628.75;4933526;29;20039;-76
2022/04/08 06:24:20;;;;;;;6.72;2.97;;;;;;;6.00;86.09;98641.91;4929720;29;20028;-76
2022/04/08 06:26:46;;;;;;;7.10;3.50;;;;;;;6.03;87.21;98647.06;4933866;29;20040;-76
2022/04/08 06:29:11;;;;;;;7.93;3.35;;;;;;;6.05;87.04;98657.50;4935797;29;20047;-76
2022/04/08 06:31:36;;;;;;;7.63;3.95;;;;;;;6.09;86.90;98654.81;4939962;29;20047;-77
2022/04/08 06:34:02;;;;;;;9.07;3.25;;;;;;;6.18;86.79;98652.91;4940204;29;20036;-76
2022/04/08 06:36:28;;;;;;;8.60;3.40;;;;;;;6.26;86.47;98664.13;4940232;29;20546;-76
2022/04/08 06:38:54;;;;;;;6.45;2.90;;;;;;;6.31;85.94;98664.88;4940082;29;20039;-76
2022/04/08 06:41:19;;;;;;;10.23;3.17;;;;;;;6.31;86.66;98683.22;4939906;29;20094;-77
2022/04/08 06:43:45;;;;;;;6.97;3.22;;;;;;;6.23;86.70;98698.22;4940082;29;20035;-77
2022/04/08 06:46:11;;;;;;;8.90;3.83;;;;;;;6.05;89.38;98692.44;4941418;29;20048;-77
2022/04/08 06:48:36;;;;;;;6.60;3.65;;;;;;;5.91;90.84;98710.09;4944457;29;20052;-77
2022/04/08 06:51:04;;;;;;;9.82;4.80;;;;;;;5.79;91.94;98718.13;4943864;29;20040;-78
2022/04/08 06:53:30;;;;;;;7.05;3.70;;;;;;;5.65;92.84;98705.28;4936505;29;20066;-78
2022/04/08 06:55:55;;;;;;;7.50;3.45;;;;;;;5.50;93.29;98714.22;4940411;29;20098;-78
2022/04/08 06:58:20;;;;;;;9.70;4.63;;;;;;;5.51;94.03;98715.09;4942311;29;20039;-77
2022/04/08 07:00:45;;;;;;;7.82;4.40;;;;;;;5.49;93.94;98715.09;4936902;29;20055;-77
2022/04/08 07:03:11;;;;;;;8.07;4.30;;;;;;;5.51;94.08;98715.97;4936348;29;20418;-77
2022/04/08 07:05:36;;;;;;;7.88;3.47;;;;;;;5.55;94.30;98709.78;4940048;29;20498;-77
2022/04/08 07:08:02;;;;;;;6.35;3.95;;;;;;;5.59;93.25;98716.69;4939295;29;20130;-77
2022/04/08 07:10:27;;;;;;;9.13;6.22;;;;;;;5.74;94.09;98714.72;4936090;29;20046;-77
2022/04/08 07:12:53;;;;;;;5.50;3.22;;;;;;;5.83;93.24;98710.22;4937788;29;20178;-77
2022/04/08 07:15:18;;;;;;;4.95;2.75;;;;;;;5.91;90.33;98712.72;4937279;29;20039;-77
2022/04/08 07:17:43;;;;;;;9.18;4.47;;;;;;;6.02;90.13;98716.03;4937805;29;20058;-77
2022/04/08 07:20:13;;;;;;;10.60;4.22;;;;;;;6.13;88.55;98727.22;4939745;29;20039;-76
2022/04/08 07:22:39;;;;;;;4.43;1.88;;;;;;;6.43;84.21;98732.81;4939193;29;20035;-76
2022/04/08 07:25:05;;;;;;;7.03;2.00;;;;;;;6.61;82.62;98744.72;4936243;29;20046;-77
2022/04/08 07:27:42;;;;;;;6.78;3.03;;;;;;;6.61;84.78;98759.56;4939543;29;20058;-77
2022/04/08 07:30:07;;;;;;;8.23;2.50;;;;;;;6.55;85.32;98752.69;4939906;29;20071;-76
2022/04/08 07:32:33;;;;;;;8.07;2.53;;;;;;;6.46;86.83;98737.97;4939557;29;20434;-76
2022/04/08 07:34:58;;;;;;;5.45;2.40;;;;;;;6.40;86.24;98745.97;4939666;29;20046;-75
2022/04/08 07:37:30;;;;;;;4.32;1.52;;;;;;;6.49;83.15;98753.66;4938572;29;20071;-77
2022/04/08 07:39:56;;;;;;;5.45;1.60;;;;;;;6.50;81.96;98760.63;4935195;29;20039;-77
2022/04/08 07:42:23;;;;;;;3.08;1.60;;;;;;;6.48;82.38;98757.16;4934989;29;20181;-77
2022/04/08 07:44:48;;;;;;;5.72;2.20;;;;;;;6.53;82.19;98765.81;4936560;29;20525;-76
2022/04/08 07:47:14;;;;;;;4.50;1.80;;;;;;;6.65;81.71;98763.84;4936439;29;20071;-77
2022/04/08 07:49:39;;;;;;;5.15;2.38;;;;;;;6.78;81.00;98763.59;4927878;29;20071;-77
2022/04/08 07:52:05;;;;;;;5.20;1.98;;;;;;;6.93;80.40;98775.53;4934971;29;20071;-76
2022/04/08 07:54:30;;;;;;;3.47;1.30;;;;;;;7.05;77.27;98782.31;4936281;29;20078;-76
2022/04/08 07:56:56;;;;;;;3.65;1.40;;;;;;;7.17;74.98;98779.44;4936396;29;20032;-77
2022/04/08 07:59:21;;;;;;;3.65;1.33;;;;;;;7.22;76.10;98787.22;4934125;29;20044;-76
2022/04/08 08:01:48;;;;;;;4.20;0.93;;;;;;;7.28;72.64;98776.59;4935971;29;20031;-77
2022/04/08 08:04:13;;;;;;;2.42;0.70;;;;;;;7.36;70.13;98807.91;4936214;29;20044;-77
2022/04/08 08:06:38;;;;;;;2.28;0.82;;;;;;;7.48;70.77;98791.94;4936192;29;20150;-77
2022/04/08 08:09:04;;;;;;;1.98;1.10;;;;;;;7.46;71.03;98781.44;4936016;29;20130;-76
2022/04/08 08:11:29;;;;;;;2.33;0.60;;;;;;;7.47;68.31;98813.84;4933569;29;20479;-77
2022/04/08 08:13:55;;;;;;;2.70;0.70;;;;;;;7.63;67.33;98796.00;4933121;29;20518;-76
2022/04/08 08:16:21;;;;;;;2.72;0.77;;;;;;;7.82;67.12;98796.44;4936230;29;20375;-76
2022/04/08 08:18:48;;;;;;;1.25;0.60;;;;;;;8.17;65.79;98779.81;4935775;29;20042;-76
2022/04/08 08:21:13;;;;;;;2.88;0.80;;;;;;;8.37;63.38;98799.53;4935652;29;20044;-76
2022/04/08 08:23:38;;;;;;;3.65;1.00;;;;;;;8.44;62.76;98803.75;4935057;29;20066;-76
2022/04/08 08:26:05;;;;;;;2.67;0.60;;;;;;;8.43;62.21;98823.91;4935823;29;20062;-76
2022/04/08 08:28:30;;;;;;;1.77;0.52;;;;;;;8.52;60.74;98807.06;4935240;29;20086;-76
2022/04/08 08:30:55;;;;;;;3.28;1.00;;;;;;;8.49;60.33;98781.72;4935179;29;20122;-76
2022/04/08 08:33:21;;;;;;;4.43;0.70;;;;;;;8.50;60.21;98791.31;4935777;29;20091;-77
2022/04/08 08:35:47;;;;;;;3.58;0.70;;;;;;;8.62;61.11;98819.06;4935759;29;20563;-76
2022/04/08 08:38:12;;;;;;;4.65;0.93;;;;;;;8.43;58.40;98830.94;4935015;29;20498;-75
2022/04/08 08:40:41;;;;;;;4.55;0.73;;;;;;;8.40;58.37;98823.13;4935371;29;20043;-75
2022/04/08 08:43:07;;;;;;;3.85;0.60;;;;;;;8.52;58.91;98836.84;4954443;23;20054;-76
2022/04/08 08:45:33;;;;;;;1.27;0.47;;;;;;;8.59;58.41;98847.19;4931565;29;20055;-75
2022/04/08 08:48:00;;;;;;;2.65;0.50;;;;;;;8.58;59.53;98842.84;4934052;29;20027;-75
2022/04/08 08:50:28;;;;;;;1.27;0.52;;;;;;;8.65;62.11;98840.03;4935250;29;20494;-75
2022/04/08 08:52:53;;;;;;;2.33;0.82;;;;;;;8.63;61.01;98883.91;4933845;29;20114;-75
2022/04/08 08:55:19;;;;;;;2.88;0.70;;;;;;;8.67;61.35;98859.28;4935134;29;20126;-74
2022/04/08 08:57:45;;;;;;;3.17;0.45;;;;;;;8.52;63.66;98875.41;4935120;29;20082;-75
2022/04/08 09:00:18;;;;;;;1.40;0.50;;;;;;;8.29;65.98;98866.28;4933943;29;20047;-74
2022/04/08 09:02:49;;;;;;;2.42;0.47;;;;;;;8.24;66.53;98876.03;4934093;29;20044;-75
2022/04/08 09:05:16;;;;;;;1.10;0.32;;;;;;;7.85;66.52;98894.41;4933907;29;20081;-74
2022/04/08 09:07:42;;;;;;;1.58;0.40;;;;;;;7.68;67.30;98873.75;4934064;29;20044;-74
2022/04/08 09:10:08;;;;;;;1.27;0.63;;;;;;;7.51;66.90;98896.84;4934502;29;20671;-75
2022/04/08 09:12:34;;;;;;;2.60;0.65;;;;;;;7.47;66.51;98924.94;4933254;29;20074;-74
2022/04/08 09:15:00;;;;;;;0.63;0.30;;;;;;;7.30;66.77;98895.50;4931969;29;20042;-75
2022/04/08 09:17:27;;;;;;;1.95;0.50;;;;;;;7.31;68.62;98885.88;4933894;29;20051;-74
2022/04/08 09:19:59;;;;;;;3.20;0.60;;;;;;;7.23;67.71;98922.75;4934866;29;20070;-73
2022/04/08 09:22:32;;;;;;;1.88;0.60;;;;;;;7.33;67.82;98900.69;4934366;29;20406;-73
2022/04/08 09:25:10;;;;;;;2.15;0.50;;;;;;;7.21;68.67;98896.56;4929934;29;20028;-73
2022/04/08 09:27:36;;;;;;;3.25;0.68;;;;;;;7.51;68.36;98894.22;4934727;29;20031;-73
2022/04/08 09:30:02;;;;;;;4.38;0.80;;;;;;;7.64;67.88;98885.22;4934728;29;20042;-73
2022/04/08 09:32:28;;;;;;;2.25;0.70;;;;;;;7.79;69.25;98889.28;4933140;29;20035;-73
2022/04/08 09:34:53;;;;;;;4.43;0.70;;;;;;;7.64;69.65;98885.22;4924035;29;20079;-73
2022/04/08 09:37:18;;;;;;;1.83;0.55;;;;;;;7.62;69.00;98880.88;4934115;29;20115;-73
2022/04/08 09:40:03;;;;;;;2.25;0.60;;;;;;;7.82;69.70;98889.22;4934595;29;20038;-73
2022/04/08 09:42:46;;;;;;;1.65;0.43;;;;;;;7.89;66.79;98885.56;4934360;29;20570;-73
2022/04/08 09:45:13;;;;;;;1.58;0.82;;;;;;;8.08;67.47;98893.06;4931919;29;20079;-73
2022/04/08 09:47:39;;;;;;;1.80;0.40;;;;;;;8.31;65.36;98882.88;4934340;29;20075;-73
2022/04/08 09:50:07;;;;;;;1.40;0.43;;;;;;;8.33;60.46;98875.81;4934389;29;20081;-73
2022/04/08 09:52:33;;;;;;;1.27;0.50;;;;;;;8.41;61.65;98886.19;4932989;29;20050;-73
2022/04/08 09:55:00;;;;;;;2.00;0.50;;;;;;;8.50;60.93;98882.47;4933605;29;20403;-73
2022/04/08 09:57:32;;;;;;;1.80;0.50;;;;;;;8.74;60.19;98870.47;4934130;29;20040;-73
2022/04/08 10:00:00;;;;;;;2.85;0.88;;;;;;;8.77;58.18;98887.03;4932655;29;20035;-73
2022/04/08 10:02:28;;;;;;;2.63;0.47;;;;;;;9.02;58.87;98857.47;4932471;29;20043;-74
2022/04/08 10:04:57;;;;;;;2.63;0.50;;;;;;;9.19;58.27;98865.78;4933014;29;20042;-74
2022/04/08 10:07:23;;;;;;;2.55;0.50;;;;;;;9.19;56.02;98867.53;4934034;29;20063;-74
2022/04/08 10:10:08;;;;;;;2.08;0.50;;;;;;;9.44;56.10;98865.13;4931156;29;20032;-74
2022/04/08 10:12:46;;;;;;;2.70;0.60;;;;;;;9.71;54.61;98895.06;4946215;29;20095;-74
2022/04/08 10:15:26;;;;;;;2.47;0.55;;;;;;;9.92;54.08;98874.28;4931003;29;20046;-74
2022/04/08 10:17:59;;;;;;;1.85;0.55;;;;;;;10.05;51.94;98886.16;4933969;29;20039;-74
2022/04/08 10:20:27;;;;;;;2.70;0.70;;;;;;;10.06;52.22;98899.31;4934088;29;20067;-74
2022/04/08 10:23:12;;;;;;;3.15;0.80;;;;;;;10.19;50.47;98859.38;4933663;29;20078;-74
2022/04/08 10:25:43;;;;;;;2.75;0.60;;;;;;;10.47;49.05;98852.34;4932738;29;20047;-74
2022/04/08 10:28:09;;;;;;;2.65;0.60;;;;;;;10.70;48.11;98846.31;4930462;29;20046;-74
2022/04/08 10:30:48;;;;;;;3.35;0.90;;;;;;;10.99;48.43;98848.88;4933787;29;20502;-74
2022/04/08 10:33:23;;;;;;;2.03;0.50;;;;;;;11.12;47.18;98873.94;4933372;29;20047;-74
2022/04/08 10:35:53;;;;;;;3.63;0.70;;;;;;;10.90;45.12;98865.91;4933460;29;20032;-74
2022/04/08 10:38:18;;;;;;;5.35;0.75;;;;;;;10.69;45.49;98841.97;4933970;29;20040;-74
2022/04/08 10:40:53;;;;;;;4.95;0.70;;;;;;;10.74;46.47;98842.66;4933232;29;20082;-74
2022/04/08 10:43:18;;;;;;;4.65;0.80;;;;;;;10.77;46.50;98846.97;4932991;29;20070;-74
2022/04/08 10:45:56;;;;;;;4.50;0.98;;;;;;;10.91;47.36;98831.53;4931035;29;20083;-74
2022/04/08 10:48:23;;;;;;;2.95;0.90;;;;;;;10.91;45.65;98833.31;4933925;29;20075;-75
2022/04/08 10:50:50;;;;;;;4.28;1.10;;;;;;;10.85;45.37;98834.38;4933768;29;20036;-74
2022/04/08 10:53:22;;;;;;;3.20;0.98;;;;;;;11.04;43.91;98839.03;4933591;29;20046;-74
2022/04/08 10:56:04;;;;;;;3.70;0.70;;;;;;;11.07;42.21;98836.28;4931791;29;20044;-74
2022/04/08 10:58:30;;;;;;;3.58;0.85;;;;;;;11.26;42.87;98821.47;4931522;29;20043;-74
2022/04/08 11:00:56;;;;;;;2.78;0.63;;;;;;;11.03;40.88;98816.16;4933383;29;20411;-74
2022/04/08 11:03:28;;;;;;;3.85;0.90;;;;;;;10.90;42.32;98827.16;4932452;29;20034;-74
2022/04/08 11:05:54;;;;;;;1.92;0.60;;;;;;;10.86;41.57;98822.91;4933386;29;20046;-74
2022/04/08 11:08:22;;;;;;;3.28;0.90;;;;;;;11.09;41.80;98818.59;4933505;29;20490;-74
2022/04/08 11:10:55;;;;;;;4.07;0.60;;;;;;;10.85;41.31;98809.78;4932211;29;20067;-74
2022/04/08 11:13:20;;;;;;;3.70;0.73;;;;;;;10.79;42.21;98809.97;4933370;29;20040;-74
2022/04/08 11:15:46;;;;;;;6.55;1.35;;;;;;;10.97;41.88;98810.19;4935008;29;20047;-74
2022/04/08 11:18:11;;;;;;;4.80;0.88;;;;;;;10.84;41.60;98808.88;4937119;29;20039;-74
2022/04/08 11:20:37;;;;;;;3.65;0.90;;;;;;;11.15;41.40;98794.63;4933458;29;20035;-74
2022/04/08 11:23:02;;;;;;;6.40;1.10;;;;;;;11.25;41.21;98803.06;4936967;29;20197;-73
2022/04/08 11:25:29;;;;;;;4.57;1.33;;;;;;;11.43;42.35;98798.91;4936830;29;20016;-74
2022/04/08 11:28:09;;;;;;;7.07;1.45;;;;;;;11.44;40.49;98803.25;4937149;29;20047;-74
2022/04/08 11:30:38;;;;;;;3.47;1.17;;;;;;;11.29;40.65;98784.44;4934806;29;20047;-74
2022/04/08 11:33:15;;;;;;;5.82;1.35;;;;;;;11.43;41.51;98772.47;4936678;29;20047;-74
2022/04/08 11:35:40;;;;;;;3.67;0.93;;;;;;;11.47;40.13;98797.84;4932571;29;20380;-73
2022/04/08 11:38:15;;;;;;;3.10;0.95;;;;;;;11.49;41.64;98778.38;4934659;29;20040;-74
2022/04/08 11:40:42;;;;;;;7.80;3.25;;;;;;;11.66;40.26;98788.31;4931980;29;20075;-74